createdAt,value
2019-03-02T00:02:05.178Z,1.00
2019-03-02T00:04:34.792Z,1.00
2019-03-02T00:07:04.427Z,0.80
2019-03-02T00:09:34.621Z,1.00
2019-03-02T00:12:04.276Z,1.63
2019-03-02T00:14:33.903Z,1.43
2019-03-02T00:17:03.541Z,0.97
2019-03-02T00:19:33.152Z,0.70
2019-03-02T00:22:06.574Z,1.03
2019-03-02T00:24:34.105Z,1.30
2019-03-02T00:27:03.731Z,1.00
2019-03-02T00:29:33.365Z,1.30
2019-03-02T00:32:05.887Z,1.10
2019-03-02T00:34:34.336Z,0.80
2019-03-02T00:37:03.968Z,1.13
2019-03-02T00:39:33.583Z,1.17
2019-03-02T00:42:03.209Z,1.20
2019-03-02T00:44:35.739Z,0.90
2019-03-02T00:47:04.099Z,1.00
2019-03-02T00:49:33.854Z,0.67
2019-03-02T00:52:03.561Z,1.17
2019-03-02T00:54:33.179Z,1.00
2019-03-02T00:57:02.810Z,1.10
2019-03-02T00:59:32.411Z,1.00
2019-03-02T01:02:04.331Z,0.80
2019-03-02T01:04:33.485Z,1.00
2019-03-02T01:07:03.143Z,1.10
2019-03-02T01:09:32.756Z,1.43
2019-03-02T01:12:02.381Z,1.20
2019-03-02T01:14:33.109Z,1.20
2019-03-02T01:17:02.775Z,1.53
2019-03-02T01:19:32.411Z,1.17
2019-03-02T01:22:02.035Z,1.63
2019-03-02T01:24:31.655Z,1.00
2019-03-02T01:27:01.976Z,1.33
2019-03-02T01:29:31.608Z,2.23
2019-03-02T01:32:01.274Z,1.50
2019-03-02T01:34:30.872Z,1.23
2019-03-02T01:37:00.505Z,1.50
2019-03-02T01:39:30.149Z,1.37
2019-03-02T01:41:59.733Z,1.47
2019-03-02T01:44:29.360Z,1.40
2019-03-02T01:46:58.979Z,1.33
2019-03-02T01:49:28.692Z,2.13
2019-03-02T01:51:59.095Z,1.73
2019-03-02T01:54:28.860Z,1.50
2019-03-02T01:56:58.557Z,1.50
2019-03-02T01:59:28.175Z,1.60
2019-03-02T02:02:00.150Z,2.00
2019-03-02T02:04:29.068Z,1.60
2019-03-02T02:06:58.665Z,1.43
2019-03-02T02:09:28.340Z,1.97
2019-03-02T02:11:57.963Z,1.50
2019-03-02T02:14:27.575Z,2.07
2019-03-02T02:16:57.201Z,1.67
2019-03-02T02:19:26.809Z,1.63
2019-03-02T02:21:58.816Z,2.00
2019-03-02T02:24:27.803Z,2.00
2019-03-02T02:26:57.419Z,2.73
2019-03-02T02:29:27.016Z,1.70
2019-03-02T02:31:56.693Z,1.83
2019-03-02T02:34:26.285Z,1.80
2019-03-02T02:36:58.127Z,2.20
2019-03-02T02:39:28.916Z,2.30
2019-03-02T02:41:59.995Z,2.67
2019-03-02T02:44:33.177Z,2.50
2019-03-02T02:47:01.119Z,2.77
2019-03-02T02:49:30.737Z,2.40
2019-03-02T02:52:00.440Z,2.07
2019-03-02T02:54:30.055Z,1.67
2019-03-02T02:57:00.595Z,1.77
2019-03-02T02:59:33.952Z,1.70
2019-03-02T03:02:01.734Z,1.87
2019-03-02T03:04:32.534Z,2.67
2019-03-02T03:07:07.202Z,2.13
2019-03-02T03:09:50.846Z,1.90
2019-03-02T03:12:22.765Z,1.97
2019-03-02T03:14:54.149Z,2.87
2019-03-02T03:17:23.108Z,2.40
2019-03-02T03:19:52.716Z,2.30
2019-03-02T03:22:22.307Z,2.40
2019-03-02T03:24:51.941Z,2.43
2019-03-02T03:27:21.565Z,2.70
2019-03-02T03:29:51.349Z,2.20
2019-03-02T03:32:21.121Z,2.27
2019-03-02T03:34:50.761Z,2.50
2019-03-02T03:37:59.064Z,2.43
2019-03-02T03:40:28.901Z,2.40
2019-03-02T03:43:03.082Z,2.27
2019-03-02T03:45:29.965Z,2.70
2019-03-02T03:47:59.560Z,2.87
2019-03-02T03:50:29.204Z,2.47
2019-03-02T03:52:58.845Z,2.83
2019-03-02T03:55:28.565Z,2.57
2019-03-02T03:58:00.492Z,2.77
2019-03-02T04:01:00.841Z,3.03
2019-03-02T04:03:30.448Z,2.43
2019-03-02T04:06:00.044Z,2.30
2019-03-02T04:08:29.984Z,2.77
2019-03-02T04:11:00.305Z,2.50
2019-03-02T04:13:30.901Z,2.77
2019-03-02T04:16:00.550Z,2.27
2019-03-02T04:18:55.121Z,2.80
2019-03-02T04:21:27.910Z,2.90
2019-03-02T04:23:56.293Z,2.90
2019-03-02T04:26:31.246Z,2.83
2019-03-02T04:28:57.683Z,2.60
2019-03-02T04:31:27.297Z,2.73
2019-03-02T04:33:56.972Z,2.77
2019-03-02T04:36:26.593Z,2.80
2019-03-02T04:38:56.185Z,3.50
2019-03-02T04:41:25.796Z,3.00
2019-03-02T04:43:55.501Z,2.80
2019-03-02T04:46:25.108Z,2.97
2019-03-02T04:48:54.748Z,2.73
2019-03-02T04:51:24.379Z,2.20
2019-03-02T04:53:54.003Z,3.23
2019-03-02T04:56:24.104Z,2.13
2019-03-02T04:58:54.755Z,2.90
2019-03-02T05:01:24.359Z,2.13
2019-03-02T05:03:57.234Z,2.67
2019-03-02T05:06:25.260Z,2.37
2019-03-02T05:08:54.889Z,2.27
2019-03-02T05:11:24.512Z,2.53
2019-03-02T05:13:54.140Z,2.43
2019-03-02T05:16:25.557Z,2.20
2019-03-02T05:18:55.099Z,1.97
2019-03-02T05:21:24.704Z,2.07
2019-03-02T05:23:54.307Z,2.00
2019-03-02T05:26:23.959Z,1.73
2019-03-02T05:28:53.575Z,2.50
2019-03-02T05:31:23.184Z,2.00
2019-03-02T05:33:52.803Z,1.73
2019-03-02T05:36:22.974Z,1.40
2019-03-02T05:38:53.675Z,1.63
2019-03-02T05:41:23.290Z,1.67
2019-03-02T05:43:52.883Z,1.20
2019-03-02T05:46:25.549Z,0.90
2019-03-02T05:48:53.817Z,1.20
2019-03-02T05:51:23.416Z,1.50
2019-03-02T05:53:53.039Z,1.23
2019-03-02T05:56:26.008Z,1.40
2019-03-02T05:58:54.019Z,1.60
2019-03-02T06:01:23.623Z,1.03
2019-03-02T06:03:53.256Z,1.10
2019-03-02T06:06:22.884Z,1.70
2019-03-02T06:08:52.484Z,0.80
2019-03-02T06:11:22.103Z,0.80
2019-03-02T06:13:51.731Z,2.57
2019-03-02T06:16:21.927Z,1.23
2019-03-02T06:18:52.440Z,1.40
2019-03-02T06:21:22.072Z,1.30
2019-03-02T06:23:51.676Z,1.10
2019-03-02T06:26:21.295Z,1.13
2019-03-02T06:28:50.907Z,1.20
2019-03-02T06:31:20.519Z,1.07
2019-03-02T06:33:50.131Z,0.93
2019-03-02T06:36:19.752Z,1.40
2019-03-02T06:38:49.475Z,1.20
2019-03-02T06:41:19.104Z,1.37
2019-03-02T06:43:48.756Z,1.40
2019-03-02T06:46:19.885Z,1.43
2019-03-02T06:48:50.624Z,1.23
2019-03-02T06:51:20.260Z,2.13
2019-03-02T06:53:49.891Z,1.23
2019-03-02T06:56:19.508Z,1.50
2019-03-02T06:58:49.107Z,1.50
2019-03-02T07:01:20.754Z,1.23
2019-03-02T07:03:50.044Z,1.50
2019-03-02T07:06:19.684Z,1.70
2019-03-02T07:08:49.392Z,2.10
2019-03-02T07:11:18.991Z,1.87
2019-03-02T07:13:48.580Z,2.33
2019-03-02T07:16:20.045Z,2.63
2019-03-02T07:19:13.455Z,1.90
2019-03-02T07:21:42.701Z,2.03
2019-03-02T07:24:12.248Z,2.20
2019-03-02T07:26:41.844Z,2.00
2019-03-02T07:29:13.861Z,3.20
2019-03-02T07:31:42.723Z,2.70
2019-03-02T07:34:12.348Z,2.17
2019-03-02T07:36:42.000Z,2.57
2019-03-02T07:39:11.608Z,2.10
2019-03-02T07:41:41.220Z,2.00
2019-03-02T07:44:10.879Z,2.50
2019-03-02T07:46:43.983Z,2.47
2019-03-02T07:49:13.026Z,2.33
2019-03-02T07:51:42.763Z,2.77
2019-03-02T07:54:12.415Z,2.13
2019-03-02T07:56:42.056Z,2.50
2019-03-02T07:59:11.676Z,2.83
2019-03-02T08:01:41.271Z,2.77
2019-03-02T08:04:10.900Z,3.00
2019-03-02T08:06:40.504Z,2.90
2019-03-02T08:09:10.120Z,3.17
2019-03-02T08:11:39.743Z,3.70
2019-03-02T08:14:12.264Z,3.10
2019-03-02T08:16:40.653Z,3.37
2019-03-02T08:19:10.262Z,3.10
2019-03-02T08:21:39.870Z,3.37
2019-03-02T08:24:09.494Z,3.07
2019-03-02T08:26:39.108Z,2.93
2019-03-02T08:29:08.736Z,3.00
2019-03-02T08:31:38.395Z,2.93
2019-03-02T08:34:09.760Z,2.90
2019-03-02T08:36:39.282Z,3.60
2019-03-02T08:39:10.761Z,2.90
2019-03-02T08:41:40.172Z,3.17
2019-03-02T08:44:09.772Z,2.97
2019-03-02T08:46:39.421Z,2.83
2019-03-02T08:49:09.080Z,3.20
2019-03-02T08:51:38.720Z,3.47
2019-03-02T08:54:08.352Z,3.13
2019-03-02T08:56:38.020Z,2.87
2019-03-02T08:59:07.693Z,3.03
2019-03-02T09:01:37.299Z,2.97
2019-03-02T09:04:10.203Z,3.33
2019-03-02T09:06:38.226Z,4.20
2019-03-02T09:09:09.605Z,3.30
2019-03-02T09:11:40.894Z,2.37
2019-03-02T09:14:12.696Z,3.60
2019-03-02T09:16:42.558Z,3.27
2019-03-02T09:19:12.219Z,3.90
2019-03-02T09:21:44.718Z,3.60
2019-03-02T09:24:14.212Z,3.40
2019-03-02T09:26:43.842Z,3.90
2019-03-02T09:29:13.472Z,3.87
2019-03-02T09:31:43.701Z,4.13
2019-03-02T09:34:13.324Z,4.33
2019-03-02T09:36:43.589Z,4.53
2019-03-02T09:39:14.848Z,4.63
2019-03-02T09:41:45.088Z,3.97
2019-03-02T09:44:14.814Z,3.50
2019-03-02T09:47:05.077Z,3.40
2019-03-02T09:49:37.459Z,3.90
2019-03-02T09:52:07.279Z,3.80
2019-03-02T09:54:36.904Z,4.07
2019-03-02T09:57:06.528Z,4.30
2019-03-02T09:59:36.199Z,3.40
2019-03-02T10:02:06.101Z,3.20
2019-03-02T10:04:38.987Z,4.40
2019-03-02T10:07:07.044Z,4.50
2019-03-02T10:09:36.667Z,3.60
2019-03-02T10:12:06.295Z,4.90
2019-03-02T10:14:35.922Z,4.27
2019-03-02T10:17:05.668Z,4.63
2019-03-02T10:19:35.269Z,4.80
2019-03-02T10:22:05.180Z,4.50
2019-03-02T10:24:35.219Z,4.43
2019-03-02T10:27:06.040Z,4.97
2019-03-02T10:29:35.789Z,4.70
2019-03-02T10:32:05.444Z,5.03
2019-03-02T10:34:38.376Z,4.40
2019-03-02T10:37:07.265Z,4.50
2019-03-02T10:39:37.668Z,4.13
2019-03-02T10:42:07.275Z,4.40
2019-03-02T10:44:49.281Z,3.80
2019-03-02T10:47:18.904Z,4.13
2019-03-02T10:49:49.236Z,3.07
2019-03-02T10:52:19.052Z,2.83
2019-03-02T10:54:48.675Z,3.67
2019-03-02T10:57:18.499Z,3.90
2019-03-02T10:59:51.787Z,4.03
2019-03-02T11:02:20.146Z,4.07
2019-03-02T11:04:55.316Z,4.33
2019-03-02T11:07:44.894Z,8.70
2019-03-02T11:10:31.833Z,6.90
2019-03-02T11:13:22.102Z,6.50
2019-03-02T11:16:05.227Z,8.03
2019-03-02T11:18:56.039Z,4.40
2019-03-02T11:21:49.599Z,6.07
2019-03-02T11:24:37.072Z,5.50
2019-03-02T11:27:34.659Z,4.40
2019-03-02T11:30:16.392Z,5.20
2019-03-02T11:33:07.731Z,11.00
2019-03-02T11:36:13.874Z,4.63
2019-03-02T11:39:01.804Z,5.30
2019-03-02T11:41:50.337Z,4.13
2019-03-02T11:44:57.050Z,6.43
2019-03-02T11:47:48.408Z,6.40
2019-03-02T11:50:46.938Z,5.83
2019-03-02T11:53:25.845Z,4.90
2019-03-02T11:56:12.968Z,4.80
2019-03-02T11:59:01.532Z,4.20
2019-03-02T12:01:48.847Z,4.57
2019-03-02T12:04:40.247Z,4.00
2019-03-02T12:07:41.973Z,4.30
2019-03-02T12:10:33.842Z,4.53
2019-03-02T12:13:31.568Z,3.83
2019-03-02T12:16:13.550Z,5.73
2019-03-02T12:19:00.911Z,4.37
2019-03-02T12:21:49.468Z,4.67
2019-03-02T12:24:37.987Z,4.73
2019-03-02T12:27:26.522Z,3.77
2019-03-02T12:30:03.148Z,5.17
2019-03-02T12:32:57.962Z,5.27
2019-03-02T12:35:40.534Z,9.23
2019-03-02T12:38:20.805Z,6.37
2019-03-02T12:41:21.823Z,8.20
2019-03-02T12:44:10.369Z,5.97
2019-03-02T12:46:51.771Z,4.47
2019-03-02T12:49:35.924Z,5.00
2019-03-02T12:52:19.204Z,5.27
2019-03-02T12:54:50.617Z,5.03
2019-03-02T12:57:41.344Z,5.33
2019-03-02T13:00:38.103Z,5.80
2019-03-02T13:03:38.845Z,6.83
2019-03-02T13:06:23.359Z,5.87
2019-03-02T13:09:05.340Z,5.57
2019-03-02T13:11:56.888Z,8.97
2019-03-02T13:15:00.749Z,5.97
2019-03-02T13:17:52.047Z,4.77
2019-03-02T13:20:49.516Z,5.50
2019-03-02T13:23:42.605Z,6.37
2019-03-02T13:26:40.509Z,4.33
2019-03-02T13:29:27.876Z,4.93
2019-03-02T13:32:20.084Z,5.10
2019-03-02T13:35:09.616Z,5.50
2019-03-02T13:37:45.656Z,5.47
2019-03-02T13:40:36.602Z,5.73
2019-03-02T13:43:15.468Z,5.97
2019-03-02T13:46:03.246Z,6.00
2019-03-02T13:49:01.758Z,5.60
2019-03-02T13:51:45.360Z,6.13
2019-03-02T13:54:33.890Z,7.27
2019-03-02T13:57:14.971Z,8.07
2019-03-02T14:00:07.627Z,6.53
2019-03-02T14:02:58.512Z,6.73
2019-03-02T14:05:47.080Z,6.87
2019-03-02T14:08:50.867Z,7.47
2019-03-02T14:11:39.743Z,6.10
2019-03-02T14:14:17.346Z,6.23
2019-03-02T14:17:11.868Z,6.13
2019-03-02T14:20:01.736Z,5.57
2019-03-02T14:22:54.092Z,5.57
2019-03-02T14:25:51.627Z,7.03
2019-03-02T14:28:36.347Z,5.60
2019-03-02T14:31:19.845Z,6.33
2019-03-02T14:34:14.354Z,6.37
2019-03-02T14:36:52.949Z,7.00
2019-03-02T14:39:44.833Z,5.83
2019-03-02T14:42:43.470Z,7.03
2019-03-02T14:45:39.226Z,5.57
2019-03-02T14:48:33.599Z,5.83
2019-03-02T14:51:25.112Z,6.47
2019-03-02T14:54:12.272Z,6.23
2019-03-02T14:56:54.283Z,5.47
2019-03-02T14:59:41.628Z,5.43
2019-03-02T15:02:33.193Z,6.00
2019-03-02T15:05:33.381Z,6.30
2019-03-02T15:08:07.737Z,5.60
2019-03-02T15:10:47.868Z,6.40
2019-03-02T15:13:45.358Z,6.90
2019-03-02T15:16:38.088Z,6.33
2019-03-02T15:19:28.186Z,6.37
2019-03-02T15:22:05.080Z,5.80
2019-03-02T15:24:57.386Z,6.27
2019-03-02T15:28:04.364Z,6.20
2019-03-02T15:30:59.316Z,6.43
2019-03-02T15:33:44.887Z,5.70
2019-03-02T15:36:43.954Z,6.00
2019-03-02T15:39:49.310Z,5.97
2019-03-02T15:42:44.300Z,6.60
2019-03-02T15:45:31.727Z,5.70
2019-03-02T15:48:17.912Z,6.30
2019-03-02T15:50:56.848Z,6.57
2019-03-02T15:53:48.396Z,6.70
2019-03-02T15:56:43.787Z,5.77
2019-03-02T15:59:36.075Z,7.27
2019-03-02T16:02:18.329Z,6.87
2019-03-02T16:05:07.811Z,6.93
2019-03-02T16:07:43.024Z,7.03
2019-03-02T16:10:43.574Z,7.03
2019-03-02T16:13:24.395Z,6.77
2019-03-02T16:16:12.136Z,5.97
2019-03-02T16:18:56.928Z,6.43
2019-03-02T16:21:34.920Z,6.40
2019-03-02T16:24:35.505Z,6.33
2019-03-02T16:27:31.391Z,6.57
2019-03-02T16:30:28.130Z,6.40
2019-03-02T16:33:15.630Z,5.97
2019-03-02T16:36:09.324Z,5.67
2019-03-02T16:39:08.063Z,6.37
2019-03-02T16:41:55.566Z,7.20
2019-03-02T16:44:39.309Z,6.70
2019-03-02T16:47:31.088Z,6.20
2019-03-02T16:50:16.567Z,7.43
2019-03-02T16:53:01.815Z,7.87
2019-03-02T16:55:49.024Z,7.17
2019-03-02T16:58:25.296Z,8.70
2019-03-02T17:01:13.995Z,6.70
2019-03-02T17:03:55.696Z,6.83
2019-03-02T17:06:47.283Z,6.47
2019-03-02T17:09:31.675Z,6.87
2019-03-02T17:12:15.893Z,5.53
2019-03-02T17:15:02.307Z,6.70
2019-03-02T17:18:02.821Z,6.43
2019-03-02T17:20:51.535Z,6.33
2019-03-02T17:23:45.916Z,6.50
2019-03-02T17:26:33.052Z,6.13
2019-03-02T17:29:30.747Z,6.50
2019-03-02T17:32:25.707Z,6.50
2019-03-02T17:35:04.363Z,5.23
2019-03-02T17:37:56.721Z,4.90
2019-03-02T17:40:56.090Z,6.20
2019-03-02T17:43:47.693Z,4.57
2019-03-02T17:46:42.516Z,5.43
2019-03-02T17:49:31.673Z,6.20
2019-03-02T17:52:14.290Z,5.30
2019-03-02T17:55:15.027Z,5.17
2019-03-02T17:58:06.324Z,5.27
2019-03-02T18:00:57.789Z,5.00
2019-03-02T18:03:50.292Z,5.33
2019-03-02T18:06:29.986Z,7.27
2019-03-02T18:09:06.715Z,5.33
2019-03-02T18:11:50.476Z,5.83
2019-03-02T18:14:32.773Z,5.40
2019-03-02T18:17:27.564Z,5.73
2019-03-02T18:19:57.182Z,5.13
2019-03-02T18:22:26.816Z,4.77
2019-03-02T18:24:56.442Z,5.87
2019-03-02T18:27:26.206Z,5.73
2019-03-02T18:29:56.331Z,5.87
2019-03-02T18:32:30.213Z,5.90
2019-03-02T18:34:59.964Z,5.90
2019-03-02T18:37:30.663Z,5.57
2019-03-02T18:40:02.518Z,5.40
2019-03-02T18:42:31.873Z,5.67
2019-03-02T18:45:04.412Z,5.60
2019-03-02T18:47:32.919Z,5.83
2019-03-02T18:50:28.830Z,5.83
2019-03-02T18:53:06.573Z,6.60
2019-03-02T18:55:36.267Z,6.73
2019-03-02T18:58:07.764Z,6.27
2019-03-02T19:00:40.770Z,6.37
2019-03-02T19:03:11.072Z,7.10
2019-03-02T19:05:40.760Z,6.17
2019-03-02T19:08:11.649Z,7.47
2019-03-02T19:10:43.268Z,7.67
2019-03-02T19:13:13.307Z,7.27
2019-03-02T19:15:43.032Z,6.00
2019-03-02T19:18:13.263Z,7.23
2019-03-02T19:20:42.957Z,7.83
2019-03-02T19:23:12.571Z,6.67
2019-03-02T19:25:42.236Z,6.80
2019-03-02T19:28:11.916Z,7.20
2019-03-02T19:30:41.876Z,7.53
2019-03-02T19:33:11.555Z,7.53
2019-03-02T19:35:41.214Z,7.67
2019-03-02T19:38:10.914Z,6.27
2019-03-02T19:40:40.608Z,7.67
2019-03-02T19:43:10.597Z,7.33
2019-03-02T19:45:40.236Z,7.20
2019-03-02T19:48:10.300Z,6.67
2019-03-02T19:50:40.264Z,7.40
2019-03-02T19:53:09.940Z,6.03
2019-03-02T19:55:39.599Z,7.70
2019-03-02T19:58:09.274Z,6.83
2019-03-02T20:00:38.892Z,6.97
2019-03-02T20:03:08.654Z,7.23
2019-03-02T20:05:38.316Z,6.93
2019-03-02T20:08:08.632Z,8.00
2019-03-02T20:10:38.696Z,6.63
2019-03-02T20:13:08.356Z,7.00
2019-03-02T20:15:38.064Z,6.80
2019-03-02T20:18:07.781Z,6.13
2019-03-02T20:20:37.433Z,6.53
2019-03-02T20:23:07.065Z,6.30
2019-03-02T20:25:36.688Z,6.43
2019-03-02T20:28:06.338Z,6.83
2019-03-02T20:30:35.953Z,7.50
2019-03-02T20:33:05.577Z,7.17
2019-03-02T20:35:35.767Z,6.30
2019-03-02T20:38:05.844Z,6.73
2019-03-02T20:40:35.540Z,6.70
2019-03-02T20:43:05.188Z,6.60
2019-03-02T20:45:34.825Z,6.87
2019-03-02T20:48:04.643Z,7.17
2019-03-02T20:50:34.289Z,6.73
2019-03-02T20:53:03.892Z,6.80
2019-03-02T20:55:33.596Z,6.77
2019-03-02T20:58:03.230Z,6.43
2019-03-02T21:00:32.963Z,6.57
2019-03-02T21:03:02.725Z,6.83
2019-03-02T21:05:32.857Z,6.47
2019-03-02T21:08:02.480Z,5.93
2019-03-02T21:10:32.327Z,6.70
2019-03-02T21:13:01.983Z,7.13
2019-03-02T21:15:34.056Z,6.50
2019-03-02T21:18:03.950Z,6.30
2019-03-02T21:20:33.787Z,7.27
2019-03-02T21:23:03.948Z,7.60
2019-03-02T21:25:33.560Z,7.40
2019-03-02T21:28:03.879Z,6.53
2019-03-02T21:30:33.500Z,6.20
2019-03-02T21:33:03.188Z,6.87
2019-03-02T21:35:32.849Z,7.70
2019-03-02T21:38:02.776Z,6.13
2019-03-02T21:40:32.520Z,6.33
2019-03-02T21:43:02.791Z,7.57
2019-03-02T21:45:32.567Z,5.97
2019-03-02T21:48:02.317Z,6.83
2019-03-02T21:50:32.090Z,6.80
2019-03-02T21:53:01.953Z,7.10
2019-03-02T21:55:31.596Z,6.00
2019-03-02T21:58:01.221Z,6.87
2019-03-02T22:00:31.379Z,7.47
2019-03-02T22:03:01.014Z,7.50
2019-03-02T22:05:30.622Z,7.73
2019-03-02T22:08:00.235Z,8.13
2019-03-02T22:10:42.141Z,6.73
2019-03-02T22:13:11.824Z,7.40
2019-03-02T22:15:41.432Z,7.77
2019-03-02T22:18:11.057Z,7.33
2019-03-02T22:20:40.679Z,7.07
2019-03-02T22:23:10.290Z,7.83
2019-03-02T22:25:39.915Z,7.50
2019-03-02T22:28:09.544Z,7.60
2019-03-02T22:30:39.211Z,7.57
2019-03-02T22:33:08.838Z,8.30
2019-03-02T22:35:38.447Z,8.10
2019-03-02T22:38:08.071Z,8.17
2019-03-02T22:40:37.706Z,8.70
2019-03-02T22:43:07.408Z,8.30
2019-03-02T22:45:37.087Z,8.23
2019-03-02T22:48:06.717Z,8.53
2019-03-02T22:50:36.324Z,9.07
2019-03-02T22:53:06.004Z,8.73
2019-03-02T22:55:35.631Z,9.37
2019-03-02T22:58:05.324Z,8.87
2019-03-02T23:01:14.078Z,8.60
2019-03-02T23:03:41.933Z,8.07
2019-03-02T23:06:11.551Z,8.33
2019-03-02T23:08:41.166Z,8.10
2019-03-02T23:11:10.781Z,8.10
2019-03-02T23:13:40.384Z,7.53
2019-03-02T23:16:10.131Z,8.30
2019-03-02T23:18:39.751Z,8.13
2019-03-02T23:21:09.360Z,7.90
2019-03-02T23:23:39.008Z,8.50
2019-03-02T23:26:08.613Z,8.37
2019-03-02T23:28:38.259Z,9.63
2019-03-02T23:31:08.584Z,9.23
2019-03-02T23:33:38.224Z,8.23
2019-03-02T23:36:07.816Z,8.57
2019-03-02T23:38:37.444Z,8.30
2019-03-02T23:41:07.389Z,8.83
2019-03-02T23:43:37.024Z,8.50
2019-03-02T23:46:06.708Z,8.30
2019-03-02T23:48:36.376Z,9.23
2019-03-02T23:51:05.967Z,8.73
2019-03-02T23:53:35.656Z,9.53
2019-03-02T23:56:05.363Z,8.63
2019-03-02T23:58:34.975Z,10.03
